Time;durP1;ratioP1;P1;durP2;ratioP2;P2;SDS_P1;SDS_P2;PMS_P1;PMS_P2;Temp;Humidity;BMP_temperature;BMP_pressure;BME280_temperature;BME280_humidity;BME280_pressure;Samples;Min_cycle;Max_cycle;Signal;HPM_P1;HPM_P2
2023/02/14 00:01:49;;;;;;;17.98;11.38;;;;;;;;;;4899512;29;20035;-77
2023/02/14 00:04:15;;;;;;;16.77;11.20;;;;;;;;;;4899859;29;20488;-77
2023/02/14 00:06:42;;;;;;;18.15;11.07;;;;;;;;;;4895022;29;20029;-77
2023/02/14 00:09:10;;;;;;;17.52;11.10;;;;;;;;;;4906654;29;20110;-77
2023/02/14 00:11:37;;;;;;;15.52;11.23;;;;;;;;;;4902220;29;20076;-78
2023/02/14 00:16:48;;;;;;;15.38;9.43;;;;;;;;;;4908266;29;20096;-76
2023/02/14 00:19:14;;;;;;;22.70;10.48;;;;;;;;;;4911180;29;20036;-75
2023/02/14 00:21:41;;;;;;;19.33;10.48;;;;;;;;;;4911676;29;20028;-74
2023/02/14 00:24:11;;;;;;;17.75;10.75;;;;;;;;;;4915404;29;20041;-77
2023/02/14 00:26:38;;;;;;;18.45;10.85;;;;;;;;;;4905742;29;20036;-77
2023/02/14 00:29:04;;;;;;;16.92;9.93;;;;;;;;;;4903120;29;20060;-77
2023/02/14 00:31:31;;;;;;;16.65;11.02;;;;;;;;;;4902487;29;20028;-77
2023/02/14 00:33:57;;;;;;;18.40;11.65;;;;;;;;;;4902662;29;20098;-77
2023/02/14 00:36:23;;;;;;;21.63;11.90;;;;;;;;;;4906030;29;20459;-77
2023/02/14 00:38:49;;;;;;;16.45;9.75;;;;;;;;;;4904005;29;20051;-77
2023/02/14 00:41:18;;;;;;;17.20;11.18;;;;;;;;;;4898461;29;20024;-78
2023/02/14 00:43:45;;;;;;;14.70;10.85;;;;;;;;;;4898541;29;20436;-78
2023/02/14 00:46:11;;;;;;;17.20;10.25;;;;;;;;;;4897635;29;20028;-77
2023/02/14 00:48:37;;;;;;;17.98;10.75;;;;;;;;;;4896141;29;20039;-77
2023/02/14 00:51:05;;;;;;;18.13;11.50;;;;;;;;;;4912960;29;20032;-78
2023/02/14 00:53:31;;;;;;;16.80;10.43;;;;;;;;;;4902942;29;20371;-77
2023/02/14 00:55:57;;;;;;;18.13;11.13;;;;;;;;;;4901590;29;20056;-77
2023/02/14 00:58:24;;;;;;;16.75;10.85;;;;;;;;;;4910508;29;20040;-77
2023/02/14 01:00:50;;;;;;;14.95;10.82;;;;;;;;;;4902731;29;20472;-77
2023/02/14 01:03:16;;;;;;;17.15;11.32;;;;;;;;;;4899515;29;20365;-78
2023/02/14 01:05:42;;;;;;;18.10;11.95;;;;;;;;;;4908759;29;20037;-77
2023/02/14 01:08:08;;;;;;;19.25;12.57;;;;;;;;;;4905340;29;20104;-78
2023/02/14 01:10:36;;;;;;;20.27;11.07;;;;;;;;;;4908486;29;20487;-78
2023/02/14 01:13:02;;;;;;;18.13;11.80;;;;;;;;;;4904004;29;20041;-77
2023/02/14 01:15:29;;;;;;;16.98;11.05;;;;;;;;;;4897111;29;20092;-76
2023/02/14 01:17:55;;;;;;;14.70;10.02;;;;;;;;;;4900938;29;20028;-76
2023/02/14 01:20:21;;;;;;;14.73;10.85;;;;;;;;;;4892435;29;20031;-77
2023/02/14 01:22:47;;;;;;;16.83;10.88;;;;;;;;;;4902842;29;20466;-78
2023/02/14 01:25:13;;;;;;;17.17;10.07;;;;;;;;;;4905898;29;20036;-77
2023/02/14 01:27:39;;;;;;;16.98;10.77;;;;;;;;;;4910285;29;20067;-77
2023/02/14 01:30:06;;;;;;;15.88;9.40;;;;;;;;;;4897130;29;20076;-77
2023/02/14 01:32:32;;;;;;;18.77;10.32;;;;;;;;;;4898716;29;20261;-78
2023/02/14 01:34:58;;;;;;;15.93;9.98;;;;;;;;;;4898106;29;20012;-77
2023/02/14 01:37:25;;;;;;;16.23;9.65;;;;;;;;;;4905485;29;20024;-76
2023/02/14 01:39:54;;;;;;;15.70;9.63;;;;;;;;;;4897581;29;20043;-76
2023/02/14 01:42:20;;;;;;;15.40;9.25;;;;;;;;;;4895121;29;20027;-77
2023/02/14 01:44:49;;;;;;;18.23;11.85;;;;;;;;;;4901233;29;20033;-79
2023/02/14 01:47:18;;;;;;;18.35;10.52;;;;;;;;;;4904310;29;20055;-77
2023/02/14 01:49:46;;;;;;;16.88;11.13;;;;;;;;;;4903658;29;20025;-78
2023/02/14 01:52:12;;;;;;;18.02;11.20;;;;;;;;;;4901062;29;20107;-77
2023/02/14 01:54:41;;;;;;;19.70;11.25;;;;;;;;;;4897058;29;20056;-76
2023/02/14 01:57:09;;;;;;;17.85;11.63;;;;;;;;;;4902529;29;20088;-77
2023/02/14 01:59:43;;;;;;;17.90;11.50;;;;;;;;;;4900010;29;20080;-77
2023/02/14 02:02:09;;;;;;;17.33;11.02;;;;;;;;;;4897059;29;20040;-77
2023/02/14 02:04:38;;;;;;;17.90;10.07;;;;;;;;;;4893261;29;20084;-76
2023/02/14 02:07:11;;;;;;;14.13;10.32;;;;;;;;;;4899164;29;20104;-78
2023/02/14 02:09:53;;;;;;;18.48;12.15;;;;;;;;;;4900280;29;20028;-78
2023/02/14 02:12:19;;;;;;;16.17;10.88;;;;;;;;;;4897983;29;20029;-77
2023/02/14 02:14:46;;;;;;;20.40;11.52;;;;;;;;;;4896418;29;20028;-78
2023/02/14 02:17:31;;;;;;;19.15;12.13;;;;;;;;;;4898682;29;20656;-77
2023/02/14 02:20:15;;;;;;;23.10;13.07;;;;;;;;;;4896728;29;20028;-77
2023/02/14 02:22:59;;;;;;;16.67;11.70;;;;;;;;;;4893595;29;20036;-77
2023/02/14 02:25:37;;;;;;;22.85;12.75;;;;;;;;;;4898469;29;20036;-76
2023/02/14 02:28:03;;;;;;;19.45;12.70;;;;;;;;;;4896618;29;20025;-75
2023/02/14 02:30:43;;;;;;;22.70;13.27;;;;;;;;;;4897739;29;20518;-77
2023/02/14 02:33:09;;;;;;;18.63;13.35;;;;;;;;;;4896609;29;20040;-76
2023/02/14 02:35:54;;;;;;;18.80;12.57;;;;;;;;;;4895752;29;20498;-77
2023/02/14 02:38:43;;;;;;;17.90;12.27;;;;;;;;;;4894840;29;20527;-77
2023/02/14 02:41:15;;;;;;;17.95;11.85;;;;;;;;;;4896871;29;20473;-76
2023/02/14 02:43:41;;;;;;;20.67;12.90;;;;;;;;;;4898806;29;20039;-75
2023/02/14 02:48:56;;;;;;;20.17;13.02;;;;;;;;;;4900434;29;20079;-77
2023/02/14 02:54:36;;;;;;;17.00;12.02;;;;;;;;;;4894721;29;20043;-76
2023/02/14 02:57:05;;;;;;;17.90;12.27;;;;;;;;;;4882340;29;20025;-77
2023/02/14 02:59:32;;;;;;;19.08;11.98;;;;;;;;;;4896791;29;21933;-78
2023/02/14 03:02:11;;;;;;;16.55;11.98;;;;;;;;;;4896153;29;20491;-77
2023/02/14 03:04:54;;;;;;;20.30;12.60;;;;;;;;;;4893243;29;20064;-76
2023/02/14 03:07:35;;;;;;;21.15;12.43;;;;;;;;;;4885967;29;20043;-78
2023/02/14 03:10:16;;;;;;;22.75;13.25;;;;;;;;;;4893320;29;20032;-77
2023/02/14 03:12:48;;;;;;;18.35;11.70;;;;;;;;;;4891616;29;20339;-76
2023/02/14 03:15:26;;;;;;;19.35;13.80;;;;;;;;;;4891330;29;20037;-76
2023/02/14 03:17:55;;;;;;;22.50;13.38;;;;;;;;;;4897954;29;20039;-77
2023/02/14 03:20:40;;;;;;;20.13;13.13;;;;;;;;;;4901751;29;20031;-77
2023/02/14 03:23:14;;;;;;;17.00;12.25;;;;;;;;;;4895831;29;20033;-77
2023/02/14 03:25:43;;;;;;;17.48;12.27;;;;;;;;;;4896164;29;20099;-77
2023/02/14 03:28:38;;;;;;;19.42;12.75;;;;;;;;;;4898441;29;20619;-77
2023/02/14 03:31:07;;;;;;;21.67;11.77;;;;;;;;;;4808674;29;20043;-77
2023/02/14 03:33:43;;;;;;;24.42;12.68;;;;;;;;;;4894092;29;20039;-77
2023/02/14 03:36:14;;;;;;;18.00;12.90;;;;;;;;;;4899958;29;20037;-77
2023/02/14 03:38:43;;;;;;;19.13;13.23;;;;;;;;;;4907177;29;20032;-77
2023/02/14 03:41:12;;;;;;;17.58;11.40;;;;;;;;;;4897058;29;20041;-76
2023/02/14 03:43:48;;;;;;;21.27;12.40;;;;;;;;;;4890145;29;20074;-77
2023/02/14 03:46:22;;;;;;;19.23;13.27;;;;;;;;;;4883777;29;20041;-77
2023/02/14 03:48:50;;;;;;;18.52;11.85;;;;;;;;;;4906033;29;20121;-78
2023/02/14 03:51:17;;;;;;;20.30;12.82;;;;;;;;;;4904569;29;20033;-77
2023/02/14 03:53:45;;;;;;;20.48;12.00;;;;;;;;;;4884827;29;20051;-77
2023/02/14 03:56:17;;;;;;;20.25;12.23;;;;;;;;;;4899093;29;20047;-77
2023/02/14 03:58:45;;;;;;;17.88;12.68;;;;;;;;;;4902569;29;20160;-76
2023/02/14 04:01:24;;;;;;;21.88;12.20;;;;;;;;;;4904217;29;20020;-77
2023/02/14 04:03:52;;;;;;;20.13;12.18;;;;;;;;;;4892534;29;20048;-78
2023/02/14 04:06:18;;;;;;;22.33;11.80;;;;;;;;;;4894416;29;20531;-76
2023/02/14 04:08:45;;;;;;;18.25;11.32;;;;;;;;;;4905295;29;20073;-77
2023/02/14 04:11:11;;;;;;;18.13;11.77;;;;;;;;;;4901758;29;20036;-77
2023/02/14 04:13:38;;;;;;;19.52;13.00;;;;;;;;;;4899377;29;20368;-76
2023/02/14 04:16:04;;;;;;;17.75;12.30;;;;;;;;;;4897699;29;20230;-76
2023/02/14 04:21:16;;;;;;;19.70;12.32;;;;;;;;;;4903527;29;20035;-77
2023/02/14 04:23:42;;;;;;;16.95;11.90;;;;;;;;;;4892617;29;20074;-74
2023/02/14 04:26:08;;;;;;;15.65;12.15;;;;;;;;;;4898584;29;20027;-76
2023/02/14 04:28:34;;;;;;;21.13;12.50;;;;;;;;;;4896907;29;20040;-77
2023/02/14 04:31:01;;;;;;;17.40;11.80;;;;;;;;;;4902920;29;20032;-76
2023/02/14 04:33:28;;;;;;;19.33;13.60;;;;;;;;;;4899031;29;20076;-76
2023/02/14 04:35:54;;;;;;;23.88;13.43;;;;;;;;;;4896846;29;20095;-76
2023/02/14 04:38:20;;;;;;;19.92;12.50;;;;;;;;;;4897620;29;20036;-77
2023/02/14 04:40:48;;;;;;;23.60;14.10;;;;;;;;;;4902001;29;20087;-76
2023/02/14 04:43:14;;;;;;;25.13;13.93;;;;;;;;;;4901965;29;20032;-75
2023/02/14 04:45:41;;;;;;;23.38;14.63;;;;;;;;;;4898028;29;20039;-76
2023/02/14 04:48:07;;;;;;;20.25;13.38;;;;;;;;;;4880032;29;20021;-76
2023/02/14 04:50:33;;;;;;;21.52;12.70;;;;;;;;;;4894024;29;20507;-76
2023/02/14 04:52:59;;;;;;;20.95;12.52;;;;;;;;;;4901205;29;20472;-76
2023/02/14 04:55:25;;;;;;;16.60;10.20;;;;;;;;;;4884480;29;20499;-76
2023/02/14 04:57:51;;;;;;;17.13;9.93;;;;;;;;;;4896301;29;20032;-76
2023/02/14 05:00:17;;;;;;;16.83;10.63;;;;;;;;;;4900739;29;20036;-76
2023/02/14 05:02:43;;;;;;;17.33;9.73;;;;;;;;;;4906330;29;20119;-76
2023/02/14 05:05:09;;;;;;;21.92;11.93;;;;;;;;;;4907245;29;20032;-75
2023/02/14 05:07:35;;;;;;;17.80;11.35;;;;;;;;;;4914263;29;20056;-75
2023/02/14 05:10:02;;;;;;;18.75;8.95;;;;;;;;;;4912846;29;20023;-75
2023/02/14 05:12:28;;;;;;;15.88;11.13;;;;;;;;;;4905613;29;20059;-76
2023/02/14 05:14:56;;;;;;;19.42;10.80;;;;;;;;;;4897003;29;20048;-77
2023/02/14 05:17:22;;;;;;;20.80;9.90;;;;;;;;;;4901339;29;20040;-77
2023/02/14 05:19:52;;;;;;;16.25;9.38;;;;;;;;;;4896683;29;20084;-76
2023/02/14 05:22:18;;;;;;;15.90;10.50;;;;;;;;;;4900453;29;20040;-75
2023/02/14 05:24:44;;;;;;;22.15;8.75;;;;;;;;;;4896086;29;20032;-78
2023/02/14 05:27:10;;;;;;;13.60;8.50;;;;;;;;;;4899718;29;20021;-76
2023/02/14 05:29:37;;;;;;;13.73;7.55;;;;;;;;;;4898034;29;20391;-75
2023/02/14 05:32:03;;;;;;;15.00;7.65;;;;;;;;;;4902762;29;20112;-76
2023/02/14 05:34:29;;;;;;;15.57;9.32;;;;;;;;;;4901772;29;20036;-76
2023/02/14 05:36:56;;;;;;;18.05;7.68;;;;;;;;;;4901818;29;20036;-78
2023/02/14 05:39:22;;;;;;;13.20;8.52;;;;;;;;;;4898488;29;20024;-76
2023/02/14 05:41:48;;;;;;;13.00;7.72;;;;;;;;;;4899398;29;20036;-77
2023/02/14 05:44:14;;;;;;;9.80;7.57;;;;;;;;;;4890248;29;20043;-76
2023/02/14 05:46:40;;;;;;;15.65;7.50;;;;;;;;;;4899065;29;20036;-77
2023/02/14 05:49:06;;;;;;;12.35;6.68;;;;;;;;;;4898416;29;20095;-77
2023/02/14 05:51:32;;;;;;;11.68;6.40;;;;;;;;;;4895100;29;20034;-76
2023/02/14 05:53:59;;;;;;;12.02;7.18;;;;;;;;;;4900777;29;20040;-77
2023/02/14 05:56:26;;;;;;;11.88;6.70;;;;;;;;;;4900729;29;20032;-76
2023/02/14 05:58:52;;;;;;;13.80;7.35;;;;;;;;;;4912403;29;20029;-77
2023/02/14 06:01:18;;;;;;;17.85;7.40;;;;;;;;;;4885999;29;20041;-76
2023/02/14 06:03:44;;;;;;;11.77;7.90;;;;;;;;;;4900570;29;20369;-77
2023/02/14 06:06:10;;;;;;;15.50;6.82;;;;;;;;;;4898073;29;20028;-77
2023/02/14 06:08:36;;;;;;;14.00;7.25;;;;;;;;;;4893163;29;20057;-77
2023/02/14 06:11:02;;;;;;;14.23;7.90;;;;;;;;;;4895063;29;20145;-78
2023/02/14 06:13:28;;;;;;;14.85;7.80;;;;;;;;;;4889280;29;20029;-77
2023/02/14 06:15:54;;;;;;;13.43;6.55;;;;;;;;;;4890726;29;20025;-78
2023/02/14 06:18:21;;;;;;;14.65;7.30;;;;;;;;;;4897759;29;20052;-77
2023/02/14 06:20:47;;;;;;;14.10;6.85;;;;;;;;;;4900015;29;20029;-77
2023/02/14 06:23:13;;;;;;;11.02;7.40;;;;;;;;;;4900081;29;20032;-77
2023/02/14 06:25:39;;;;;;;13.65;7.65;;;;;;;;;;4897630;29;20369;-77
2023/02/14 06:28:06;;;;;;;9.23;6.82;;;;;;;;;;4895975;29;20025;-77
2023/02/14 06:30:32;;;;;;;13.73;7.05;;;;;;;;;;4897171;29;20024;-76
2023/02/14 06:32:58;;;;;;;11.25;6.68;;;;;;;;;;4898498;29;20029;-78
2023/02/14 06:35:24;;;;;;;13.10;7.47;;;;;;;;;;4901137;29;20040;-78
2023/02/14 06:37:50;;;;;;;11.68;7.28;;;;;;;;;;4900265;29;20087;-78
2023/02/14 06:40:18;;;;;;;10.90;6.57;;;;;;;;;;4897008;29;20029;-76
2023/02/14 06:42:44;;;;;;;16.50;7.22;;;;;;;;;;4892542;29;20492;-77
2023/02/14 06:45:10;;;;;;;13.45;7.32;;;;;;;;;;4896614;29;20499;-77
2023/02/14 06:47:36;;;;;;;13.35;7.72;;;;;;;;;;4897805;29;20033;-77
2023/02/14 06:50:03;;;;;;;15.88;7.25;;;;;;;;;;4897416;29;20028;-77
2023/02/14 06:52:30;;;;;;;12.13;7.35;;;;;;;;;;4894306;29;20460;-78
2023/02/14 06:54:56;;;;;;;8.88;7.22;;;;;;;;;;4890081;29;20028;-77
2023/02/14 06:57:22;;;;;;;14.43;7.82;;;;;;;;;;4897263;29;20044;-77
2023/02/14 06:59:48;;;;;;;14.88;5.65;;;;;;;;;;4896742;29;20084;-77
2023/02/14 07:02:14;;;;;;;13.90;7.40;;;;;;;;;;4898278;29;20067;-77
2023/02/14 07:04:40;;;;;;;11.40;6.50;;;;;;;;;;4897040;29;20518;-77
2023/02/14 07:07:07;;;;;;;13.43;7.25;;;;;;;;;;4895236;29;20037;-77
2023/02/14 07:09:33;;;;;;;13.30;7.20;;;;;;;;;;4893697;29;20048;-77
2023/02/14 07:11:59;;;;;;;14.20;6.32;;;;;;;;;;4893144;29;20240;-77
2023/02/14 07:14:25;;;;;;;13.30;6.20;;;;;;;;;;4889683;29;20099;-77
2023/02/14 07:16:51;;;;;;;12.88;6.15;;;;;;;;;;4894477;29;20039;-78
2023/02/14 07:19:17;;;;;;;9.10;5.13;;;;;;;;;;4899326;29;20399;-77
2023/02/14 07:21:43;;;;;;;11.15;6.18;;;;;;;;;;4909149;29;20088;-77
2023/02/14 07:24:10;;;;;;;12.60;5.55;;;;;;;;;;4915363;29;20032;-77
2023/02/14 07:26:36;;;;;;;9.02;5.22;;;;;;;;;;4907821;29;20024;-78
2023/02/14 07:29:02;;;;;;;9.15;5.55;;;;;;;;;;4902772;29;20104;-77
2023/02/14 07:31:28;;;;;;;9.00;5.22;;;;;;;;;;4901273;29;20037;-77
2023/02/14 07:33:55;;;;;;;14.18;5.18;;;;;;;;;;4905878;29;20071;-77
2023/02/14 07:36:21;;;;;;;10.88;5.50;;;;;;;;;;4899845;29;20047;-76
2023/02/14 07:38:47;;;;;;;9.23;5.72;;;;;;;;;;4899768;29;20392;-77
2023/02/14 07:41:13;;;;;;;7.82;4.80;;;;;;;;;;4902048;29;20040;-77
2023/02/14 07:43:39;;;;;;;11.00;5.53;;;;;;;;;;4898665;29;20301;-77
2023/02/14 07:46:05;;;;;;;9.75;4.90;;;;;;;;;;4909985;29;20387;-77
2023/02/14 07:48:31;;;;;;;13.90;6.10;;;;;;;;;;4895952;29;20076;-77
2023/02/14 07:50:58;;;;;;;13.43;5.45;;;;;;;;;;4898395;29;20532;-78
2023/02/14 07:53:24;;;;;;;10.52;5.53;;;;;;;;;;4903539;29;20053;-76
2023/02/14 07:55:51;;;;;;;16.63;5.63;;;;;;;;;;4883628;29;20040;-77
2023/02/14 07:58:17;;;;;;;9.45;5.38;;;;;;;;;;4903000;29;20024;-78
2023/02/14 08:00:45;;;;;;;12.00;6.60;;;;;;;;;;4899205;29;20028;-76
2023/02/14 08:03:11;;;;;;;13.90;7.07;;;;;;;;;;4898590;29;20511;-77
2023/02/14 08:05:38;;;;;;;15.77;6.80;;;;;;;;;;4893873;29;20044;-78
2023/02/14 08:08:04;;;;;;;13.65;6.40;;;;;;;;;;4899880;29;20099;-77
2023/02/14 08:10:30;;;;;;;15.10;6.63;;;;;;;;;;4901496;29;20047;-77
2023/02/14 08:13:14;;;;;;;13.18;7.07;;;;;;;;;;4902817;29;20400;-77
2023/02/14 08:18:26;;;;;;;10.30;6.57;;;;;;;;;;4903024;29;20043;-77
2023/02/14 08:20:52;;;;;;;12.80;6.43;;;;;;;;;;4900785;29;20028;-77
2023/02/14 08:23:19;;;;;;;14.38;7.35;;;;;;;;;;4908324;29;20039;-78
2023/02/14 08:25:46;;;;;;;12.20;6.63;;;;;;;;;;4902838;29;20025;-79
2023/02/14 08:28:15;;;;;;;10.77;6.63;;;;;;;;;;4903151;29;20037;-77
2023/02/14 08:30:42;;;;;;;13.65;6.82;;;;;;;;;;4904518;29;20035;-77
2023/02/14 08:33:08;;;;;;;15.82;6.47;;;;;;;;;;4897256;29;20031;-76
2023/02/14 08:35:34;;;;;;;15.15;6.68;;;;;;;;;;4893394;29;20065;-77
2023/02/14 08:38:00;;;;;;;12.50;6.90;;;;;;;;;;4896284;29;20428;-77
2023/02/14 08:40:27;;;;;;;16.42;6.95;;;;;;;;;;4899343;29;20092;-77
2023/02/14 08:42:53;;;;;;;13.43;7.55;;;;;;;;;;4893476;29;20088;-76
2023/02/14 08:45:20;;;;;;;13.00;6.57;;;;;;;;;;4895740;29;20041;-77
2023/02/14 08:47:46;;;;;;;16.67;6.93;;;;;;;;;;4897775;29;20657;-78
2023/02/14 08:50:13;;;;;;;14.57;5.68;;;;;;;;;;4897830;29;20062;-77
2023/02/14 08:52:42;;;;;;;13.93;6.25;;;;;;;;;;4888242;29;20057;-76
2023/02/14 08:55:08;;;;;;;10.02;5.03;;;;;;;;;;4894790;29;20024;-77
2023/02/14 08:57:34;;;;;;;10.40;5.30;;;;;;;;;;4900132;29;20101;-78
2023/02/14 09:00:00;;;;;;;11.30;5.00;;;;;;;;;;4904126;29;20043;-77
2023/02/14 09:02:26;;;;;;;8.65;4.97;;;;;;;;;;4907522;29;20040;-79
2023/02/14 09:04:52;;;;;;;7.25;4.45;;;;;;;;;;4910969;29;20036;-77
2023/02/14 09:07:18;;;;;;;18.90;6.55;;;;;;;;;;4895763;29;20088;-77
2023/02/14 09:09:45;;;;;;;9.68;4.63;;;;;;;;;;4908301;29;20029;-76
2023/02/14 09:12:11;;;;;;;11.13;5.45;;;;;;;;;;4910603;29;20080;-77
2023/02/14 09:14:38;;;;;;;9.18;4.43;;;;;;;;;;4911864;29;20059;-78
2023/02/14 09:17:04;;;;;;;8.93;4.97;;;;;;;;;;4906489;29;20040;-78
2023/02/14 09:19:34;;;;;;;11.02;4.68;;;;;;;;;;4904943;29;20504;-79
2023/02/14 09:22:02;;;;;;;7.63;4.53;;;;;;;;;;4906277;29;20486;-77
2023/02/14 09:24:29;;;;;;;8.73;4.55;;;;;;;;;;4907671;29;20029;-77
2023/02/14 09:26:56;;;;;;;7.10;4.20;;;;;;;;;;4903561;29;20027;-76
2023/02/14 09:29:23;;;;;;;7.88;4.15;;;;;;;;;;4901428;29;20037;-77
2023/02/14 09:31:51;;;;;;;7.72;4.10;;;;;;;;;;4908465;29;20013;-77
2023/02/14 09:37:02;;;;;;;7.72;3.45;;;;;;;;;;4910390;29;20043;-78
2023/02/14 09:39:28;;;;;;;5.90;3.40;;;;;;;;;;4896747;29;20064;-77
2023/02/14 09:41:57;;;;;;;7.65;3.40;;;;;;;;;;4915184;29;20043;-77
2023/02/14 09:44:36;;;;;;;8.18;3.92;;;;;;;;;;4909045;29;20031;-79
2023/02/14 09:47:11;;;;;;;8.20;3.95;;;;;;;;;;4892853;29;20031;-78
2023/02/14 09:49:40;;;;;;;9.45;4.00;;;;;;;;;;4897901;29;20357;-77
2023/02/14 09:52:18;;;;;;;11.73;4.30;;;;;;;;;;4906047;29;20021;-78
2023/02/14 09:54:48;;;;;;;8.32;3.72;;;;;;;;;;4893760;29;20059;-77
2023/02/14 09:57:14;;;;;;;8.43;4.10;;;;;;;;;;4906403;29;20048;-77
2023/02/14 09:59:49;;;;;;;8.43;3.58;;;;;;;;;;4901709;29;20043;-78
2023/02/14 10:02:30;;;;;;;5.18;4.25;;;;;;;;;;4905161;29;20033;-75
2023/02/14 10:04:57;;;;;;;8.90;3.72;;;;;;;;;;4906809;29;20024;-77
2023/02/14 10:07:31;;;;;;;8.50;4.00;;;;;;;;;;4906727;29;20064;-77
2023/02/14 10:09:57;;;;;;;6.60;3.50;;;;;;;;;;4898405;29;20037;-77
2023/02/14 10:12:31;;;;;;;6.93;3.80;;;;;;;;;;4901443;29;20024;-76
2023/02/14 10:14:58;;;;;;;11.75;4.55;;;;;;;;;;4902702;29;20070;-77
2023/02/14 10:17:30;;;;;;;10.00;4.00;;;;;;;;;;4892507;29;20036;-77
2023/02/14 10:20:01;;;;;;;5.70;2.80;;;;;;;;;;4899279;29;20064;-77
2023/02/14 10:22:54;;;;;;;5.88;3.50;;;;;;;;;;4896978;29;20035;-78
2023/02/14 10:25:23;;;;;;;8.07;3.63;;;;;;;;;;4852957;29;20108;-77
2023/02/14 10:27:51;;;;;;;13.85;4.47;;;;;;;;;;4900958;29;20076;-77
2023/02/14 10:30:21;;;;;;;9.40;4.07;;;;;;;;;;4900774;29;20032;-78
2023/02/14 10:32:48;;;;;;;16.13;5.07;;;;;;;;;;4902240;29;20115;-77
2023/02/14 10:35:33;;;;;;;8.55;4.55;;;;;;;;;;4898726;29;20029;-77
2023/02/14 10:38:16;;;;;;;10.50;5.50;;;;;;;;;;4893343;29;20435;-77
2023/02/14 10:40:52;;;;;;;10.65;5.57;;;;;;;;;;4896791;29;20029;-77
2023/02/14 10:43:37;;;;;;;12.88;5.45;;;;;;;;;;4899247;29;20159;-77
2023/02/14 10:46:03;;;;;;;12.10;5.17;;;;;;;;;;4891041;29;20032;-77
2023/02/14 10:48:29;;;;;;;15.27;5.40;;;;;;;;;;4903035;29;20285;-77
2023/02/14 10:51:08;;;;;;;11.05;4.70;;;;;;;;;;4896774;29;20024;-77
2023/02/14 10:53:34;;;;;;;15.40;5.95;;;;;;;;;;4901481;29;20065;-79
2023/02/14 10:56:19;;;;;;;10.73;5.75;;;;;;;;;;4902593;29;20041;-78
2023/02/14 10:58:46;;;;;;;12.80;5.80;;;;;;;;;;4898318;29;20103;-77
2023/02/14 11:01:14;;;;;;;10.60;4.70;;;;;;;;;;4905654;29;20052;-77
2023/02/14 11:03:44;;;;;;;12.27;4.80;;;;;;;;;;4897531;29;20068;-75
2023/02/14 11:06:10;;;;;;;15.80;5.63;;;;;;;;;;4888556;29;20113;-75
2023/02/14 11:08:37;;;;;;;12.48;5.07;;;;;;;;;;4891289;29;20066;-76
2023/02/14 11:11:03;;;;;;;12.50;6.40;;;;;;;;;;4894102;29;20084;-77
2023/02/14 11:13:34;;;;;;;18.92;5.80;;;;;;;;;;4887788;29;20096;-76
2023/02/14 11:16:01;;;;;;;10.65;4.90;;;;;;;;;;4896616;29;20158;-77
2023/02/14 11:18:38;;;;;;;12.85;4.80;;;;;;;;;;4892052;29;20032;-76
2023/02/14 11:21:09;;;;;;;12.20;5.43;;;;;;;;;;4893159;29;20025;-76
2023/02/14 11:23:42;;;;;;;11.57;6.13;;;;;;;;;;4896024;29;20107;-76
2023/02/14 11:26:16;;;;;;;7.22;4.82;;;;;;;;;;4897647;29;20136;-77
2023/02/14 11:28:48;;;;;;;14.10;4.57;;;;;;;;;;4899788;29;20031;-77
2023/02/14 11:31:23;;;;;;;12.77;4.72;;;;;;;;;;4885146;29;20400;-76
2023/02/14 11:33:50;;;;;;;13.57;5.85;;;;;;;;;;4899090;29;20150;-76
2023/02/14 11:36:19;;;;;;;13.25;5.10;;;;;;;;;;4896405;29;20258;-77
2023/02/14 11:38:54;;;;;;;14.70;4.65;;;;;;;;;;4914903;29;20038;-77
2023/02/14 11:41:20;;;;;;;9.83;5.20;;;;;;;;;;4901464;29;20395;-76
2023/02/14 11:43:48;;;;;;;18.45;6.40;;;;;;;;;;4900184;29;20384;-76
2023/02/14 11:46:16;;;;;;;13.60;5.70;;;;;;;;;;4891743;29;20025;-76
2023/02/14 11:49:02;;;;;;;17.13;5.38;;;;;;;;;;4899530;29;20029;-78
2023/02/14 11:51:30;;;;;;;10.30;4.95;;;;;;;;;;4892353;29;20033;-76
2023/02/14 11:53:59;;;;;;;13.82;5.45;;;;;;;;;;4891519;29;20488;-76
2023/02/14 11:56:42;;;;;;;15.38;4.57;;;;;;;;;;4902286;29;20357;-75
2023/02/14 11:59:12;;;;;;;16.67;5.47;;;;;;;;;;4899949;29;20032;-77
2023/02/14 12:01:38;;;;;;;13.13;4.93;;;;;;;;;;4895769;29;20039;-76
2023/02/14 12:04:07;;;;;;;15.13;5.30;;;;;;;;;;4892962;29;20491;-77
2023/02/14 12:06:36;;;;;;;16.20;5.47;;;;;;;;;;4890997;29;20029;-77
2023/02/14 12:09:17;;;;;;;13.98;5.18;;;;;;;;;;4893872;29;20053;-77
2023/02/14 12:11:54;;;;;;;15.25;4.50;;;;;;;;;;4888094;29;20142;-77
2023/02/14 12:14:21;;;;;;;14.35;4.88;;;;;;;;;;4902984;29;20028;-76
2023/02/14 12:16:55;;;;;;;15.70;4.97;;;;;;;;;;4907555;29;20032;-77
2023/02/14 12:19:51;;;;;;;17.88;5.35;;;;;;;;;;4900827;29;20036;-76
2023/02/14 12:22:22;;;;;;;12.25;4.82;;;;;;;;;;4885287;29;20049;-77
2023/02/14 12:24:57;;;;;;;13.00;5.43;;;;;;;;;;4906531;29;20056;-77
2023/02/14 12:27:26;;;;;;;35.00;6.65;;;;;;;;;;4891416;29;20117;-76
2023/02/14 12:29:57;;;;;;;17.55;4.57;;;;;;;;;;4904998;29;20044;-78
2023/02/14 12:32:25;;;;;;;17.73;5.50;;;;;;;;;;4904902;29;20048;-76
2023/02/14 12:34:53;;;;;;;16.75;4.38;;;;;;;;;;4897479;29;20526;-77
2023/02/14 12:37:22;;;;;;;18.30;4.95;;;;;;;;;;4895718;29;20074;-76
2023/02/14 12:39:54;;;;;;;12.25;5.55;;;;;;;;;;4895171;29;20036;-77
2023/02/14 12:42:31;;;;;;;19.20;4.80;;;;;;;;;;4896480;29;20037;-77
2023/02/14 12:45:09;;;;;;;14.88;5.55;;;;;;;;;;4897272;29;20128;-76
2023/02/14 12:47:54;;;;;;;11.93;5.30;;;;;;;;;;4891882;29;20032;-77
2023/02/14 12:50:43;;;;;;;14.25;4.75;;;;;;;;;;4899323;29;20033;-76
2023/02/14 12:53:16;;;;;;;12.18;5.10;;;;;;;;;;4883787;29;20743;-77
2023/02/14 12:55:54;;;;;;;13.82;4.72;;;;;;;;;;4892311;29;20044;-76
2023/02/14 12:58:56;;;;;;;14.07;4.18;;;;;;;;;;4898025;29;20033;-77
2023/02/14 13:01:40;;;;;;;13.70;4.65;;;;;;;;;;4836264;29;20450;-76
2023/02/14 13:04:19;;;;;;;10.18;3.97;;;;;;;;;;4886568;29;20115;-77
2023/02/14 13:07:09;;;;;;;11.68;4.30;;;;;;;;;;4890917;29;20025;-76
2023/02/14 13:10:01;;;;;;;8.55;4.03;;;;;;;;;;4835609;29;20090;-77
2023/02/14 13:12:28;;;;;;;12.85;5.43;;;;;;;;;;4846791;29;20045;-76
2023/02/14 13:15:13;;;;;;;13.65;4.57;;;;;;;;;;4878092;29;20502;-76
2023/02/14 13:17:46;;;;;;;9.30;4.20;;;;;;;;;;4876344;29;20159;-76
2023/02/14 13:20:12;;;;;;;11.00;3.80;;;;;;;;;;4878586;29;20032;-77
2023/02/14 13:22:39;;;;;;;11.73;4.03;;;;;;;;;;4876018;29;20041;-77
2023/02/14 13:25:12;;;;;;;14.10;4.45;;;;;;;;;;4869862;29;20037;-77
2023/02/14 13:27:39;;;;;;;28.55;4.75;;;;;;;;;;4874215;29;20377;-77
2023/02/14 13:30:32;;;;;;;13.45;4.70;;;;;;;;;;4868667;29;20030;-77
2023/02/14 13:33:01;;;;;;;10.80;3.53;;;;;;;;;;4883742;29;20048;-76
2023/02/14 13:35:28;;;;;;;8.48;3.53;;;;;;;;;;4871754;29;20174;-77
2023/02/14 13:37:56;;;;;;;13.75;3.97;;;;;;;;;;4876253;29;20379;-77
2023/02/14 13:40:24;;;;;;;10.65;4.18;;;;;;;;;;4874556;29;20484;-78
2023/02/14 13:42:52;;;;;;;10.90;3.55;;;;;;;;;;4877114;29;20513;-77
2023/02/14 13:45:39;;;;;;;9.82;3.75;;;;;;;;;;4878759;29;20025;-77
2023/02/14 13:48:17;;;;;;;12.90;4.40;;;;;;;;;;4877044;29;20496;-76
2023/02/14 13:51:03;;;;;;;11.20;4.65;;;;;;;;;;4874567;29;20051;-74
2023/02/14 13:53:42;;;;;;;13.32;4.13;;;;;;;;;;4889813;29;20060;-79
2023/02/14 13:56:11;;;;;;;7.05;3.65;;;;;;;;;;4878698;29;20384;-77
2023/02/14 13:58:51;;;;;;;12.50;4.05;;;;;;;;;;4879769;29;20039;-77
2023/02/14 14:01:26;;;;;;;10.43;4.60;;;;;;;;;;4873435;29;20128;-77
2023/02/14 14:03:52;;;;;;;;;;;;;;;;;;4873014;29;20033;-77
2023/02/14 14:06:18;;;;;;;7.78;3.72;;;;;;;;;;4875360;29;20305;-77
2023/02/14 14:08:48;;;;;;;15.68;4.25;;;;;;;;;;4892839;29;20087;-77
2023/02/14 14:11:21;;;;;;;9.38;4.00;;;;;;;;;;4899153;29;20031;-77
2023/02/14 14:13:47;;;;;;;7.03;3.35;;;;;;;;;;4892820;29;20041;-77
2023/02/14 14:16:27;;;;;;;9.40;4.50;;;;;;;;;;4890326;29;20048;-77
2023/02/14 14:18:57;;;;;;;13.00;4.38;;;;;;;;;;4900875;29;20028;-77
2023/02/14 14:21:27;;;;;;;8.13;3.45;;;;;;;;;;4894847;29;20047;-77
2023/02/14 14:24:03;;;;;;;10.90;4.55;;;;;;;;;;4891200;29;20057;-77
2023/02/14 14:26:40;;;;;;;13.55;4.85;;;;;;;;;;4888257;29;20565;-76
2023/02/14 14:29:12;;;;;;;7.18;3.92;;;;;;;;;;4893382;29;20371;-77
2023/02/14 14:31:39;;;;;;;13.00;4.50;;;;;;;;;;4890466;29;20025;-77
2023/02/14 14:34:05;;;;;;;9.13;3.47;;;;;;;;;;4895533;29;20096;-77
2023/02/14 14:36:32;;;;;;;9.05;3.33;;;;;;;;;;4893054;29;20495;-77
2023/02/14 14:38:58;;;;;;;9.00;3.35;;;;;;;;;;4893639;29;20455;-77
2023/02/14 14:41:28;;;;;;;14.07;4.10;;;;;;;;;;4881624;29;20039;-76
2023/02/14 14:43:54;;;;;;;9.07;4.68;;;;;;;;;;4895110;29;20037;-77
2023/02/14 14:46:22;;;;;;;8.82;3.67;;;;;;;;;;4892006;29;20035;-77
2023/02/14 14:48:50;;;;;;;10.23;5.03;;;;;;;;;;4894013;29;20539;-77
2023/02/14 14:51:29;;;;;;;12.70;3.55;;;;;;;;;;4890138;29;20054;-77
2023/02/14 14:53:58;;;;;;;8.90;3.63;;;;;;;;;;4896070;29;20104;-77
2023/02/14 14:56:29;;;;;;;11.73;3.58;;;;;;;;;;4898979;29;20028;-78
2023/02/14 14:58:56;;;;;;;9.25;3.58;;;;;;;;;;4895630;29;20033;-76
2023/02/14 15:01:31;;;;;;;9.60;3.33;;;;;;;;;;4899569;29;20092;-78